Time;durP1;ratioP1;P1;durP2;ratioP2;P2;SDS_P1;SDS_P2;PMS_P1;PMS_P2;Temp;Humidity;BMP_temperature;BMP_pressure;BME280_temperature;BME280_humidity;BME280_pressure;Samples;Min_cycle;Max_cycle;Signal;HPM_P1;HPM_P2
2024/04/12 00:04:29;;;;;;;6.47;2.07;;;;;;;12.75;75.91;102166.24;5091521;55;1138514;-77
2024/04/12 00:09:35;;;;;;;6.77;1.90;;;;;;;12.75;76.60;102158.28;5079395;56;1138674;-76
2024/04/12 00:14:43;;;;;;;5.43;2.80;;;;;;;12.77;77.28;102160.37;5016491;58;1139140;-75
2024/04/12 00:19:47;;;;;;;6.73;3.07;;;;;;;12.79;77.72;102158.48;5083113;56;1138697;-76
2024/04/12 00:24:55;;;;;;;4.22;3.12;;;;;;;12.77;78.19;102151.93;5164713;56;1138500;-75
2024/04/12 00:30:03;;;;;;;7.27;3.00;;;;;;;12.74;78.86;102156.09;5184928;55;1138756;-75
2024/04/12 00:35:11;;;;;;;7.37;3.97;;;;;;;12.72;79.80;102154.47;5051190;56;1138577;-75
2024/04/12 00:40:16;;;;;;;6.27;3.10;;;;;;;12.72;80.45;102157.98;5025685;56;1138520;-76
2024/04/12 00:45:39;;;;;;;5.47;3.47;;;;;;;12.75;81.37;102160.93;5045686;56;1138828;-76
2024/04/12 00:50:28;;;;;;;9.70;4.00;;;;;;;12.73;81.97;102157.04;5024002;56;1139005;-75
2024/04/12 00:55:38;;;;;;;8.70;3.50;;;;;;;12.77;82.79;102151.93;4996105;57;1138536;-77
2024/04/12 01:00:46;;;;;;;9.27;3.53;;;;;;;12.79;83.29;102141.22;5108668;56;1138426;-76
2024/04/12 01:05:50;;;;;;;5.20;3.55;;;;;;;12.79;83.90;102130.12;5025913;57;1138729;-76
2024/04/12 01:10:59;;;;;;;4.45;3.08;;;;;;;12.86;84.54;102137.22;5024469;56;1138853;-76
2024/04/12 01:16:05;;;;;;;4.23;2.80;;;;;;;12.87;85.10;102136.28;5044857;57;1138589;-75
2024/04/12 01:21:11;;;;;;;6.25;3.30;;;;;;;12.88;85.91;102142.83;5108859;56;1138554;-76
2024/04/12 01:26:17;;;;;;;4.57;2.90;;;;;;;12.87;86.17;102141.12;5117887;55;1138783;-76
2024/04/12 01:31:27;;;;;;;5.03;3.33;;;;;;;12.81;86.43;102144.17;5064915;56;1138647;-76
2024/04/12 01:36:32;;;;;;;3.37;1.83;;;;;;;12.74;86.54;102144.14;5105230;56;1138745;-75
2024/04/12 01:41:38;;;;;;;3.80;2.20;;;;;;;12.74;86.85;102137.98;5109265;56;1138919;-76
2024/04/12 01:46:44;;;;;;;7.80;2.83;;;;;;;12.72;86.79;102133.23;5149757;56;1138834;-76
2024/04/12 01:51:53;;;;;;;4.63;2.63;;;;;;;12.69;87.32;102137.78;5129608;56;1145830;-76
2024/04/12 01:56:57;;;;;;;6.67;2.72;;;;;;;12.70;87.62;102138.64;5111800;56;1138802;-76
2024/04/12 02:02:04;;;;;;;6.83;3.10;;;;;;;12.67;87.59;102138.37;5044543;57;1138466;-75
2024/04/12 02:07:11;;;;;;;4.27;2.47;;;;;;;12.66;87.42;102126.05;5024960;57;1138782;-75
2024/04/12 02:12:17;;;;;;;7.30;2.40;;;;;;;12.62;87.31;102117.03;5024997;57;1138639;-76
2024/04/12 02:17:23;;;;;;;7.23;3.03;;;;;;;12.63;87.42;102116.08;5035693;56;1138617;-75
2024/04/12 02:22:30;;;;;;;7.00;2.57;;;;;;;12.62;87.25;102117.88;4969058;57;1138659;-75
2024/04/12 02:27:36;;;;;;;6.20;2.67;;;;;;;12.59;87.06;102114.55;4944155;58;1138592;-76
2024/04/12 02:32:42;;;;;;;5.13;3.20;;;;;;;12.58;86.59;102118.15;4975212;57;1138803;-76
2024/04/12 02:37:48;;;;;;;9.60;2.65;;;;;;;12.53;86.42;102109.13;4920933;57;1138853;-76
2024/04/12 02:42:55;;;;;;;6.78;2.80;;;;;;;12.59;86.16;102113.22;5030483;57;1138780;-76
2024/04/12 02:48:02;;;;;;;6.73;2.60;;;;;;;12.58;86.18;102108.86;5047715;57;1138733;-76
2024/04/12 02:53:08;;;;;;;5.17;2.70;;;;;;;12.57;85.94;102105.83;5115206;55;1138599;-76
2024/04/12 02:58:14;;;;;;;6.57;3.03;;;;;;;12.57;85.99;102109.33;5128646;56;1138578;-76
2024/04/12 03:03:20;;;;;;;5.80;2.87;;;;;;;12.57;85.96;102100.05;5149106;56;1138439;-75
2024/04/12 03:08:26;;;;;;;5.43;3.30;;;;;;;12.60;86.03;102095.03;5098598;55;1138507;-76
2024/04/12 03:13:34;;;;;;;7.70;3.02;;;;;;;12.63;86.17;102097.03;4980521;57;1138536;-76
2024/04/12 03:18:39;;;;;;;6.77;3.30;;;;;;;12.72;86.57;102097.40;5098868;55;1138547;-76
2024/04/12 03:23:45;;;;;;;5.87;2.93;;;;;;;12.77;86.08;102096.66;5079582;56;1138695;-76
2024/04/12 03:28:54;;;;;;;6.37;2.90;;;;;;;12.78;85.93;102095.70;5079426;56;1138619;-76
2024/04/12 03:34:09;;;;;;;11.95;3.00;;;;;;;12.82;86.06;102098.09;5099207;56;1138829;-76
2024/04/12 03:44:32;;;;;;;8.57;2.67;;;;;;;12.89;86.10;102098.54;5164634;55;1138611;-76
2024/04/12 03:49:44;;;;;;;12.07;3.13;;;;;;;12.88;86.15;102091.52;5159148;55;1138611;-75
2024/04/12 03:54:48;;;;;;;5.77;2.10;;;;;;;12.83;86.23;102085.66;5183694;55;1151325;-76
2024/04/12 03:59:57;;;;;;;7.62;3.10;;;;;;;12.72;86.53;102094.74;5164836;55;1138801;-77
2024/04/12 04:05:14;;;;;;;5.20;2.60;;;;;;;12.61;87.23;102094.94;5164739;55;1138585;-76
2024/04/12 04:10:10;;;;;;;7.60;3.67;;;;;;;12.50;88.02;102099.20;5183540;55;1138476;-76
2024/04/12 04:15:16;;;;;;;4.70;2.40;;;;;;;12.38;88.89;102111.37;5164145;55;1138647;-75
2024/04/12 04:20:27;;;;;;;7.97;2.70;;;;;;;12.36;89.45;102110.64;5151200;55;1138986;-76
2024/04/12 04:25:31;;;;;;;10.47;3.30;;;;;;;12.36;90.16;102111.11;5107408;55;1138481;-76
2024/04/12 04:30:36;;;;;;;6.47;2.50;;;;;;;12.38;91.50;102110.05;5099404;55;1140462;-76
2024/04/12 04:35:44;;;;;;;13.47;2.60;;;;;;;12.40;94.55;102105.98;5149239;55;1138783;-76
2024/04/12 04:40:52;;;;;;;7.75;2.55;;;;;;;12.45;94.48;102112.73;5099356;55;1140963;-76
2024/04/12 04:45:59;;;;;;;11.90;3.57;;;;;;;12.51;95.41;102111.52;5156099;55;1138649;-76
2024/04/12 04:51:06;;;;;;;9.37;2.50;;;;;;;12.56;95.34;102115.58;5164664;56;1140841;-76
2024/04/12 04:56:12;;;;;;;3.60;2.50;;;;;;;12.63;95.91;102118.73;5161315;55;1138640;-75
2024/04/12 05:01:18;;;;;;;11.83;2.57;;;;;;;12.66;96.50;102118.55;5185197;55;1138898;-76
2024/04/12 05:06:27;;;;;;;7.23;2.53;;;;;;;12.70;97.96;102121.37;5164695;55;1140674;-78
2024/04/12 05:11:32;;;;;;;6.23;3.40;;;;;;;12.72;97.98;102125.27;5139204;55;1138907;-76
2024/04/12 05:16:40;;;;;;;4.47;2.53;;;;;;;12.79;98.37;102122.64;5061124;56;1143870;-78
2024/04/12 05:21:47;;;;;;;6.80;2.57;;;;;;;12.84;99.08;102129.35;5098857;56;1138871;-79
2024/04/12 05:27:01;;;;;;;7.08;2.75;;;;;;;12.85;99.22;102128.41;5129039;56;1138840;-79
2024/04/12 05:32:00;;;;;;;10.03;2.03;;;;;;;12.90;99.61;102126.33;5163287;55;1138529;-77
2024/04/12 05:37:05;;;;;;;6.13;3.20;;;;;;;12.95;100.00;102131.37;5169589;55;1141009;-77
2024/04/12 05:42:11;;;;;;;12.63;2.67;;;;;;;12.96;100.00;102124.64;5078385;56;1140846;-78
2024/04/12 05:47:17;;;;;;;8.23;2.33;;;;;;;12.98;100.00;102129.86;5164877;54;1142917;-81
2024/04/12 05:52:23;;;;;;;12.40;2.73;;;;;;;13.01;100.00;102130.50;5117391;56;1140878;-79
2024/04/12 05:57:32;;;;;;;14.10;3.03;;;;;;;13.05;100.00;102133.82;5144697;55;1142975;-79
2024/04/12 06:02:36;;;;;;;4.63;2.50;;;;;;;13.08;100.00;102131.45;5115472;54;1142972;-78
2024/04/12 06:07:42;;;;;;;9.27;2.87;;;;;;;13.16;100.00;102135.83;5118418;56;1140732;-79
2024/04/12 06:12:49;;;;;;;8.00;2.40;;;;;;;13.19;100.00;102138.30;5108051;56;1140984;-80
2024/04/12 06:17:54;;;;;;;8.60;2.83;;;;;;;13.23;100.00;102139.34;5108125;56;1140776;-81
2024/04/12 06:23:06;;;;;;;9.98;2.20;;;;;;;13.27;100.00;102128.06;5128716;56;1141129;-81
2024/04/12 06:28:14;;;;;;;5.30;2.60;;;;;;;13.31;100.00;102145.02;5164027;55;1140695;-80
2024/04/12 06:33:22;;;;;;;6.13;2.23;;;;;;;13.36;100.00;102132.30;5164722;55;1140667;-80
2024/04/12 06:38:29;;;;;;;3.02;2.25;;;;;;;13.43;100.00;102125.28;5131289;56;1141168;-81
2024/04/12 06:43:34;;;;;;;5.30;2.83;;;;;;;13.46;100.00;102128.58;5181063;55;1140963;-80
2024/04/12 06:48:41;;;;;;;3.73;2.07;;;;;;;13.50;100.00;102127.91;5141216;55;1140845;-80
2024/04/12 06:53:47;;;;;;;5.47;2.67;;;;;;;13.56;100.00;102127.05;5164067;56;1140706;-80
2024/04/12 06:58:54;;;;;;;12.80;2.27;;;;;;;13.60;100.00;102121.89;5185097;55;1140835;-81
2024/04/12 07:04:05;;;;;;;5.92;2.17;;;;;;;13.62;100.00;102122.64;5165081;55;1142942;-81
2024/04/12 07:09:08;;;;;;;7.00;2.20;;;;;;;13.65;100.00;102122.45;5161518;55;1140844;-80
2024/04/12 07:14:15;;;;;;;6.93;2.50;;;;;;;13.70;100.00;102126.16;5184429;55;1140931;-80
2024/04/12 07:19:23;;;;;;;5.50;2.60;;;;;;;13.75;100.00;102129.34;5163967;55;1140582;-80
2024/04/12 07:24:32;;;;;;;7.73;2.53;;;;;;;13.78;100.00;102130.48;5164274;55;1140712;-80
2024/04/12 07:29:36;;;;;;;2.03;1.87;;;;;;;13.83;100.00;102131.05;5092237;56;1140856;-81
2024/04/12 07:34:48;;;;;;;4.70;2.70;;;;;;;13.91;100.00;102132.70;5175688;56;1140695;-80
2024/04/12 07:40:43;;;;;;;3.50;2.00;;;;;;;13.96;100.00;102125.77;5162304;55;1140771;-81
2024/04/12 07:45:06;;;;;;;8.08;2.67;;;;;;;13.99;100.00;102125.56;5138936;55;1140679;-79
2024/04/12 07:50:13;;;;;;;4.00;2.37;;;;;;;14.05;100.00;102129.16;5183578;56;1140762;-79
2024/04/12 07:55:24;;;;;;;5.27;2.47;;;;;;;14.13;100.00;102128.63;5031166;56;1140738;-79
2024/04/12 08:00:35;;;;;;;5.10;2.40;;;;;;;14.23;100.00;102125.72;5163793;55;1140863;-78
2024/04/12 08:10:56;;;;;;;3.00;2.23;;;;;;;14.37;100.00;102132.29;5083698;56;1143021;-78
2024/04/12 08:15:59;;;;;;;5.10;2.83;;;;;;;14.55;100.00;102130.22;5098460;56;1140858;-79
2024/04/12 08:21:07;;;;;;;7.33;5.50;;;;;;;14.66;100.00;102127.70;5157568;54;1140669;-79
2024/04/12 08:26:16;;;;;;;10.93;6.33;;;;;;;14.74;100.00;102124.86;5184616;55;1140923;-79
2024/04/12 08:31:23;;;;;;;3.60;2.37;;;;;;;14.78;100.00;102122.36;5138252;55;1142960;-79
2024/04/12 08:36:32;;;;;;;3.93;2.70;;;;;;;14.82;100.00;102121.64;5158199;55;1140691;-80
2024/04/12 08:41:37;;;;;;;3.07;2.17;;;;;;;14.80;100.00;102121.41;4995722;57;1141000;-79
2024/04/12 08:46:46;;;;;;;4.97;2.83;;;;;;;14.82;100.00;102120.31;5098704;55;1140616;-79
2024/04/12 08:51:58;;;;;;;35.37;9.57;;;;;;;14.91;100.00;102113.03;5087342;55;1140622;-79
2024/04/12 08:57:00;;;;;;;4.37;2.93;;;;;;;15.03;100.00;102113.96;5156081;55;1143120;-79
2024/04/12 09:02:08;;;;;;;4.10;2.10;;;;;;;15.18;100.00;102108.88;5184280;55;1140784;-79
2024/04/12 09:07:20;;;;;;;9.83;2.10;;;;;;;15.32;100.00;102110.06;5149325;55;1141056;-79
2024/04/12 09:12:27;;;;;;;2.47;1.92;;;;;;;15.40;100.00;102103.71;5149905;56;1140635;-78
2024/04/12 09:17:34;;;;;;;3.72;2.08;;;;;;;15.57;100.00;102105.66;5144794;56;1140740;-78
2024/04/12 09:22:43;;;;;;;3.53;2.20;;;;;;;15.69;100.00;102098.08;5181872;55;1140789;-79
2024/04/12 09:27:48;;;;;;;3.70;2.37;;;;;;;15.74;100.00;102098.09;5096222;55;1140677;-78
2024/04/12 09:33:00;;;;;;;11.55;3.33;;;;;;;15.67;100.00;102103.53;5038843;56;1140879;-78
2024/04/12 09:38:05;;;;;;;8.65;2.90;;;;;;;15.62;100.00;102103.48;5128749;56;1142767;-79
2024/04/12 10:42:28;;;;;;;;;;;;;;;16.11;99.39;102052.64;5166246;55;1236387;-79
2024/04/12 10:47:37;;;;;;;3.13;1.40;;;;;;;16.27;97.62;102047.82;5120092;55;976122;-79
2024/04/12 10:52:43;;;;;;;5.63;1.93;;;;;;;16.39;98.42;102041.52;5057418;57;1136514;-80
2024/04/12 10:57:49;;;;;;;4.03;1.00;;;;;;;16.43;96.01;102036.80;5099200;56;1138690;-79
2024/04/12 11:02:59;;;;;;;2.76;0.90;;;;;;;16.48;94.84;102039.48;5079332;56;1138714;-79
2024/04/12 11:08:12;;;;;;;2.90;1.67;;;;;;;16.44;95.34;102021.14;5108300;56;1139203;-80
2024/04/12 11:13:22;;;;;;;4.37;1.43;;;;;;;16.35;95.92;102028.03;5161197;55;1138642;-79
2024/04/12 11:34:45;;;;;;;5.15;1.32;;;;;;;16.23;98.51;102008.97;5079878;55;1138658;-79
2024/04/12 11:39:52;;;;;;;1.23;1.23;;;;;;;16.45;99.67;102004.16;5148997;55;1138714;-79
2024/04/12 11:44:58;;;;;;;1.72;1.60;;;;;;;16.61;98.36;101993.11;5164485;55;1138547;-79
2024/04/12 11:50:10;;;;;;;3.50;1.60;;;;;;;16.66;96.30;101997.61;5164384;55;1138539;-78
2024/04/12 11:55:12;;;;;;;1.50;1.40;;;;;;;16.60;96.06;101993.59;5184038;55;1138915;-78
2024/04/12 12:00:18;;;;;;;1.73;1.17;;;;;;;16.46;97.14;101992.02;5164227;55;1138737;-78
2024/04/12 12:05:28;;;;;;;1.47;1.37;;;;;;;16.37;98.15;101982.05;5163383;55;1138695;-79
2024/04/12 12:10:34;;;;;;;2.13;1.87;;;;;;;16.26;99.16;101970.03;5164966;55;1138977;-79
2024/04/12 12:15:38;;;;;;;2.73;1.37;;;;;;;16.22;99.11;101954.36;5162680;55;1138642;-78
2024/04/12 12:20:46;;;;;;;6.90;2.33;;;;;;;16.35;100.00;101955.09;5093864;55;1138613;-78
2024/04/12 12:25:52;;;;;;;2.03;1.93;;;;;;;16.51;98.33;101954.23;5099864;55;1140467;-79
2024/04/12 12:30:58;;;;;;;5.22;2.10;;;;;;;16.56;97.80;101955.22;5155871;55;1138835;-79
2024/04/12 12:36:05;;;;;;;2.95;1.82;;;;;;;16.34;97.50;101961.44;5164776;55;1139146;-79
2024/04/12 12:41:13;;;;;;;8.03;2.03;;;;;;;16.24;99.20;101949.76;5164408;55;1138803;-79
2024/04/12 12:46:28;;;;;;;3.80;3.40;;;;;;;16.30;100.00;101943.46;5181894;55;1138788;-79
2024/04/12 12:51:27;;;;;;;7.73;3.57;;;;;;;16.28;98.26;101937.39;5163519;55;1140683;-79
2024/04/12 12:56:33;;;;;;;4.57;3.53;;;;;;;16.18;98.30;101931.94;5164336;55;1138925;-79
2024/04/12 13:01:41;;;;;;;29.55;12.23;;;;;;;16.24;97.31;101923.06;5164954;55;1138742;-78
2024/04/12 13:06:46;;;;;;;8.77;3.93;;;;;;;16.30;97.79;101916.77;5154807;56;1142664;-79
2024/04/12 13:11:51;;;;;;;40.27;17.17;;;;;;;16.41;96.47;101917.23;5150227;55;1138694;-79
2024/04/12 13:16:57;;;;;;;3.27;2.67;;;;;;;16.48;97.27;101925.13;5163345;55;1142678;-79
2024/04/12 13:22:04;;;;;;;3.20;2.53;;;;;;;16.50;95.62;101922.67;5184819;56;1138614;-79
2024/04/12 13:27:14;;;;;;;3.42;2.67;;;;;;;16.47;95.68;101914.94;5162161;55;1138931;-78
2024/04/12 13:32:19;;;;;;;13.90;8.60;;;;;;;16.43;94.44;101905.95;5163526;55;1138695;-80
2024/04/12 13:37:29;;;;;;;5.47;3.23;;;;;;;16.40;95.99;101900.36;5177112;56;1140825;-80
2024/04/12 13:42:39;;;;;;;6.20;4.53;;;;;;;16.42;96.63;101885.07;5132946;55;1138617;-79
2024/04/12 13:53:09;;;;;;;6.28;4.80;;;;;;;16.42;97.94;101876.21;5097726;56;1142693;-79
2024/04/12 13:58:13;;;;;;;3.93;2.80;;;;;;;16.42;98.49;101875.72;5131980;56;1138671;-78
2024/04/12 14:03:23;;;;;;;4.50;3.10;;;;;;;16.48;99.58;101869.90;5131627;55;1138619;-79
2024/04/12 14:08:28;;;;;;;6.13;2.43;;;;;;;16.57;99.92;101868.78;5146611;55;1138416;-78
2024/04/12 14:13:34;;;;;;;4.67;2.70;;;;;;;16.59;99.61;101858.33;5118303;55;1138771;-79
2024/04/12 14:18:39;;;;;;;6.70;3.00;;;;;;;16.60;98.72;101853.36;5126714;56;1139040;-79
2024/04/12 14:23:48;;;;;;;3.37;3.03;;;;;;;16.62;98.12;101845.22;5170877;55;1139013;-79
2024/04/12 14:28:53;;;;;;;4.57;2.53;;;;;;;16.63;99.12;101840.27;5148497;55;1138477;-79
2024/04/12 14:33:59;;;;;;;6.16;3.02;;;;;;;16.65;99.76;101843.67;5164307;55;1138512;-79
2024/04/12 14:39:15;;;;;;;8.33;2.60;;;;;;;16.65;100.00;101837.81;5184990;55;1138858;-79
2024/04/12 14:44:15;;;;;;;26.73;11.20;;;;;;;16.63;98.93;101825.58;5162522;55;1140592;-79
2024/04/12 14:49:20;;;;;;;14.20;5.45;;;;;;;16.61;99.82;101812.31;5163245;55;1142642;-79
2024/04/12 14:54:26;;;;;;;17.97;3.53;;;;;;;16.63;99.65;101794.38;5183471;55;1140787;-79
2024/04/12 14:59:34;;;;;;;11.80;4.83;;;;;;;16.70;99.57;101790.69;5163984;55;1140398;-79
2024/04/12 16:14:23;;;;;;;3.25;2.25;;;;;;;17.13;95.70;101702.38;5111856;56;1138470;-82
2024/04/12 16:19:29;;;;;;;6.10;2.53;;;;;;;17.07;96.27;101694.91;5164753;55;1138723;-79
2024/04/12 16:24:34;;;;;;;6.03;2.70;;;;;;;17.02;96.64;101684.60;5163802;55;1138898;-81
2024/04/12 16:29:40;;;;;;;7.70;3.10;;;;;;;16.98;97.01;101684.50;5149346;55;1138705;-80
2024/04/12 16:34:49;;;;;;;4.43;2.97;;;;;;;16.99;97.43;101666.64;5178167;56;1138836;-81
2024/04/12 16:39:54;;;;;;;10.53;4.13;;;;;;;16.99;97.66;101659.95;5161508;56;1138826;-81
2024/04/12 16:45:00;;;;;;;12.40;4.47;;;;;;;17.00;98.75;101650.47;5164615;55;1140731;-80
2024/04/12 16:50:07;;;;;;;5.20;3.10;;;;;;;17.02;98.40;101661.03;5184637;55;1140861;-81
2024/04/12 16:55:13;;;;;;;6.30;3.42;;;;;;;16.94;98.48;101661.72;5164323;55;1138473;-80
2024/04/12 17:00:18;;;;;;;3.30;2.70;;;;;;;16.93;98.57;101657.34;5107866;56;1138799;-80
2024/04/12 17:05:24;;;;;;;11.90;2.93;;;;;;;16.92;98.54;101656.98;5045089;57;1138867;-80
2024/04/12 17:10:31;;;;;;;6.86;2.68;;;;;;;16.91;98.91;101658.45;5130876;55;1140804;-80
2024/04/12 17:15:37;;;;;;;9.00;3.30;;;;;;;16.89;99.48;101653.23;5154396;54;1148531;-79
2024/04/12 17:20:43;;;;;;;15.60;3.43;;;;;;;16.83;99.82;101649.25;5185399;54;1138985;-81
2024/04/12 17:25:48;;;;;;;9.50;3.40;;;;;;;16.75;100.00;101647.75;5163977;56;1140788;-80
2024/04/12 17:31:00;;;;;;;6.37;3.40;;;;;;;16.67;100.00;101652.88;5163758;56;1140937;-81
2024/04/12 17:36:07;;;;;;;14.60;3.87;;;;;;;16.61;100.00;101660.06;5105387;55;1140709;-80
2024/04/12 17:41:12;;;;;;;6.42;3.02;;;;;;;16.59;100.00;101659.83;5098322;56;1142761;-80
2024/04/12 17:46:18;;;;;;;14.17;5.87;;;;;;;16.63;100.00;101655.97;5163996;56;1140884;-79
2024/04/12 17:51:24;;;;;;;13.87;4.37;;;;;;;16.69;100.00;101650.08;5143401;55;1143339;-79
2024/04/12 17:56:29;;;;;;;7.77;4.47;;;;;;;16.67;100.00;101650.70;4992576;57;1143358;-80
2024/04/12 18:01:35;;;;;;;12.03;5.10;;;;;;;16.57;100.00;101647.94;5159068;55;1141121;-80
2024/04/12 18:06:44;;;;;;;67.70;32.83;;;;;;;16.44;100.00;101638.79;5158966;55;1142728;-79
2024/04/12 18:11:48;;;;;;;35.97;15.00;;;;;;;16.42;100.00;101632.73;5131899;56;1144904;-81
2024/04/12 18:16:54;;;;;;;66.50;25.90;;;;;;;16.43;100.00;101630.42;5133882;55;1145217;-80
2024/04/12 18:22:01;;;;;;;79.70;28.10;;;;;;;16.48;100.00;101631.38;5184054;55;1145331;-80
2024/04/12 18:27:11;;;;;;;95.30;41.13;;;;;;;16.44;100.00;101631.27;5163620;55;1144611;-80
2024/04/12 18:32:19;;;;;;;51.83;16.53;;;;;;;16.42;100.00;101638.06;5163555;55;1144799;-78
2024/04/12 18:48:14;;;;;;;103.33;44.10;;;;;;;15.98;100.00;101631.59;5158814;55;1145063;-80
2024/04/12 18:53:21;;;;;;;75.07;36.10;;;;;;;15.98;100.00;101630.27;5184242;55;1146956;-79
2024/04/12 18:58:27;;;;;;;310.27;116.03;;;;;;;16.03;100.00;101619.58;5163830;55;1145596;-79
2024/04/12 19:03:32;;;;;;;288.10;120.17;;;;;;;16.09;100.00;101620.37;5023176;57;1148973;-79
2024/04/12 19:08:41;;;;;;;137.40;81.92;;;;;;;16.19;100.00;101623.15;5163810;56;1151789;-80
2024/04/12 19:13:46;;;;;;;63.50;36.10;;;;;;;16.17;100.00;101622.42;5044072;56;1147220;-79
2024/04/12 19:18:58;;;;;;;104.30;54.78;;;;;;;16.17;100.00;101617.94;5163959;55;1145164;-80
2024/04/12 19:24:00;;;;;;;37.03;19.52;;;;;;;16.17;100.00;101613.09;5153298;55;1147078;-81
2024/04/12 19:29:06;;;;;;;27.32;13.58;;;;;;;16.18;100.00;101609.44;5163820;55;1144935;-78
2024/04/12 19:34:12;;;;;;;40.95;16.52;;;;;;;16.17;100.00;101613.09;5163398;55;1144976;-79
2024/04/12 19:39:18;;;;;;;19.20;8.97;;;;;;;16.14;100.00;101602.17;5163888;55;1145006;-79
2024/04/12 19:44:26;;;;;;;14.60;7.63;;;;;;;16.04;100.00;101607.08;5184156;55;1142790;-79
2024/04/12 19:49:33;;;;;;;12.13;8.03;;;;;;;15.96;100.00;101602.37;5098169;55;1142858;-80
2024/04/12 19:54:39;;;;;;;20.40;10.23;;;;;;;15.92;100.00;101596.91;5078168;56;1142511;-79
2024/04/12 19:59:46;;;;;;;25.97;15.87;;;;;;;15.87;100.00;101598.29;5128967;56;1145083;-79
2024/04/12 20:04:53;;;;;;;16.37;9.50;;;;;;;15.82;100.00;101590.17;5183859;55;1144737;-79
2024/04/12 20:09:58;;;;;;;29.73;14.17;;;;;;;15.93;100.00;101583.94;5159453;55;1142639;-78
2024/04/12 20:15:04;;;;;;;15.90;9.30;;;;;;;15.98;100.00;101574.23;5163732;55;1145338;-78
2024/04/12 20:20:10;;;;;;;12.18;7.03;;;;;;;15.98;100.00;101570.22;5184714;55;1142957;-79
2024/04/12 20:25:15;;;;;;;16.57;8.50;;;;;;;15.91;100.00;101566.36;5144055;55;1143100;-78
2024/04/12 20:30:33;;;;;;;12.03;6.87;;;;;;;15.82;100.00;101563.98;5161112;55;1142635;-80
2024/04/12 20:35:32;;;;;;;17.83;8.53;;;;;;;15.76;100.00;101565.81;5142560;55;1142862;-78
2024/04/12 20:40:35;;;;;;;17.30;7.40;;;;;;;15.71;100.00;101561.37;5010866;56;1142658;-79
2024/04/12 20:45:43;;;;;;;13.37;9.33;;;;;;;15.71;100.00;101558.70;5160844;55;1142820;-78
2024/04/12 20:50:48;;;;;;;19.37;9.77;;;;;;;15.73;100.00;101558.09;5184055;55;1142723;-78
2024/04/12 20:55:53;;;;;;;16.93;10.83;;;;;;;15.71;100.00;101562.21;5078750;57;1142845;-77
2024/04/12 21:01:04;;;;;;;16.77;9.20;;;;;;;15.63;100.00;101557.13;5078499;55;1145045;-77
2024/04/12 21:06:10;;;;;;;17.33;9.53;;;;;;;15.56;100.00;101556.80;5100109;55;1144338;-79
2024/04/12 21:11:15;;;;;;;20.20;9.63;;;;;;;15.48;100.00;101544.05;5161111;56;1143013;-78
2024/04/12 21:16:21;;;;;;;18.07;8.73;;;;;;;15.42;100.00;101550.39;5118083;55;1142717;-78
2024/04/12 21:21:27;;;;;;;17.00;7.40;;;;;;;15.34;100.00;101548.34;5098089;57;1143031;-77
2024/04/12 21:26:35;;;;;;;11.22;6.56;;;;;;;15.34;100.00;101545.67;5153583;55;1143189;-78
2024/04/12 21:31:41;;;;;;;11.20;8.37;;;;;;;15.32;100.00;101535.61;5164942;55;1143012;-77
2024/04/12 21:36:49;;;;;;;15.53;7.90;;;;;;;15.34;100.00;101536.83;5135384;56;1142749;-77
2024/04/12 21:41:55;;;;;;;12.10;6.87;;;;;;;15.32;100.00;101534.28;5126546;55;1142844;-77
2024/04/12 21:47:01;;;;;;;12.70;7.10;;;;;;;15.31;100.00;101527.25;5163993;55;1142977;-77
2024/04/12 21:52:07;;;;;;;10.63;7.07;;;;;;;15.34;100.00;101527.50;5183929;55;1142617;-77
2024/04/12 21:57:12;;;;;;;10.82;6.42;;;;;;;15.33;100.00;101523.98;5154010;55;1142769;-77
2024/04/12 22:02:18;;;;;;;13.30;6.20;;;;;;;15.34;100.00;101518.16;5137702;56;1142772;-77
2024/04/12 22:07:24;;;;;;;17.37;6.13;;;;;;;15.38;100.00;101516.95;5183893;55;1142901;-77
2024/04/12 22:12:30;;;;;;;7.60;5.03;;;;;;;15.39;100.00;101511.50;5016876;57;1262344;-77
2024/04/12 22:17:36;;;;;;;12.20;5.30;;;;;;;15.40;100.00;101515.86;5108902;56;1140834;-78
2024/04/12 22:22:42;;;;;;;9.43;4.37;;;;;;;15.40;100.00;101513.67;5165068;56;1143209;-77
2024/04/12 22:27:48;;;;;;;18.10;5.20;;;;;;;15.43;100.00;101517.40;5185465;55;1140788;-77
2024/04/12 22:32:54;;;;;;;8.03;4.97;;;;;;;15.48;100.00;101508.06;5118777;56;1142686;-77
2024/04/12 22:38:00;;;;;;;6.27;3.90;;;;;;;15.52;100.00;101506.00;5080848;56;1140853;-77
2024/04/12 22:43:07;;;;;;;6.43;3.77;;;;;;;15.58;100.00;101508.69;5100233;56;1140888;-78
2024/04/12 22:48:12;;;;;;;8.20;4.03;;;;;;;15.65;100.00;101519.19;4996914;57;1140931;-77
2024/04/12 22:53:21;;;;;;;8.10;4.65;;;;;;;15.70;100.00;101514.33;5079635;56;1140781;-77
2024/04/12 22:58:25;;;;;;;7.13;4.03;;;;;;;15.72;100.00;101502.56;5126287;55;1140641;-78
2024/04/12 23:03:32;;;;;;;7.13;3.97;;;;;;;15.75;100.00;101499.61;5078897;56;1140956;-77
2024/04/12 23:08:37;;;;;;;7.92;3.92;;;;;;;15.80;100.00;101499.23;5079527;56;1140520;-77
2024/04/12 23:13:45;;;;;;;8.47;3.97;;;;;;;15.85;100.00;101489.03;5099776;56;1140657;-78
2024/04/12 23:18:54;;;;;;;6.90;3.77;;;;;;;15.89;100.00;101488.30;5150471;56;1140611;-78
2024/04/12 23:24:00;;;;;;;9.07;3.83;;;;;;;15.89;100.00;101485.63;5148475;55;1140979;-77
2024/04/12 23:29:05;;;;;;;6.83;4.70;;;;;;;15.88;100.00;101486.12;5178273;54;1140660;-78
2024/04/12 23:34:11;;;;;;;11.75;4.60;;;;;;;15.86;100.00;101485.39;5079152;56;1140876;-78
2024/04/12 23:39:17;;;;;;;9.20;4.28;;;;;;;15.80;100.00;101481.41;5078907;56;1142714;-77
2024/04/12 23:44:22;;;;;;;9.23;4.77;;;;;;;15.77;100.00;101480.81;5099197;56;1140956;-77
2024/04/12 23:49:29;;;;;;;5.80;4.10;;;;;;;15.73;100.00;101471.41;5079516;56;1140699;-77
2024/04/12 23:54:36;;;;;;;8.30;4.00;;;;;;;15.71;100.00;101464.02;5163871;55;1140956;-79
2024/04/12 23:59:42;;;;;;;14.80;4.83;;;;;;;15.67;100.00;101471.42;5112234;55;1140745;-79
